Terminal Aerodrome Forecast
Issued by NWS

Home | Current Version | Previous Version | Text Only | Print | Product List | Glossary On
Versions: 1 2 3 4 5 6 7 8 9 10 11 12 13
566
FTUS44 KBMX 251724
TAFANB
TAF
KANB 251724Z 2518/2618 16005KT P6SM FEW080 SCT250
     FM252000 17005KT P6SM VCSH SCT050 SCT250
     FM260100 06003KT P6SM SCT250=

USA.gov is the U.S. government's official web portal to all federal, state and local government web resources and services.